Time;durP1;ratioP1;P1;durP2;ratioP2;P2;SDS_P1;SDS_P2;PMS_P1;PMS_P2;Temp;Humidity;BMP_temperature;BMP_pressure;BME280_temperature;BME280_humidity;BME280_pressure;Samples;Min_cycle;Max_cycle;Signal;HPM_P1;HPM_P2
2022/05/14 00:01:53;;;;;;;;;;;;;;;15.40;61.97;101054.06;4407782;32;19973;-67
2022/05/14 00:04:20;;;;;;;;;;;;;;;15.28;62.37;101058.50;4409090;32;19961;-67
2022/05/14 00:06:45;;;;;;;;;;;;;;;15.45;61.75;101064.78;4408692;32;20016;-67
2022/05/14 00:09:12;;;;;;;;;;;;;;;15.27;62.25;101062.59;4409311;32;19985;-67
2022/05/14 00:14:23;;;;;;;;;;;;;;;15.24;62.36;101074.06;4411466;32;19977;-67
2022/05/14 00:16:50;;;;;;;;;;;;;;;15.46;61.65;101067.16;4409293;32;19981;-67
2022/05/14 00:19:15;;;;;;;;;;;;;;;15.51;61.60;101066.56;4408010;32;20022;-67
2022/05/14 00:21:43;;;;;;;;;;;;;;;15.50;61.69;101064.97;4411001;32;19958;-67
2022/05/14 00:24:09;;;;;;;;;;;;;;;15.49;61.56;101069.06;4409416;32;20450;-67
2022/05/14 00:26:36;;;;;;;;;;;;;;;15.53;61.31;101068.94;4408996;32;20303;-67
2022/05/14 00:29:02;;;;;;;;;;;;;;;15.39;61.60;101064.59;4409025;32;19965;-67
2022/05/14 00:31:27;;;;;;;;;;;;;;;15.44;61.52;101063.97;4406770;32;20016;-67
2022/05/14 00:33:53;;;;;;;;;;;;;;;15.34;61.21;101058.72;4410494;32;20198;-67
2022/05/14 00:36:18;;;;;;;;;;;;;;;15.12;62.09;101061.56;4409278;32;20308;-67
2022/05/14 00:38:44;;;;;;;;;;;;;;;15.27;61.44;101068.28;4409874;32;20397;-67
2022/05/14 00:41:10;;;;;;;;;;;;;;;15.14;61.58;101073.25;4408440;32;19949;-67
2022/05/14 00:43:46;;;;;;;;;;;;;;;15.14;61.82;101061.91;4408168;32;19996;-67
2022/05/14 00:46:15;;;;;;;;;;;;;;;15.09;62.02;101059.66;4408326;32;20644;-67
2022/05/14 00:48:42;;;;;;;;;;;;;;;15.00;62.26;101058.81;4408595;32;20008;-67
2022/05/14 00:51:11;;;;;;;;;;;;;;;14.89;62.70;101059.19;4409515;32;20013;-67
2022/05/14 00:53:38;;;;;;;;;;;;;;;14.88;62.98;101062.50;4408929;32;20007;-67
2022/05/14 00:56:05;;;;;;;;;;;;;;;14.68;63.51;101062.00;4408809;32;20454;-67
2022/05/14 00:58:42;;;;;;;;;;;;;;;14.61;63.79;101065.09;4412078;32;19958;-68
2022/05/14 01:01:08;;;;;;;;;;;;;;;14.53;64.12;101058.06;4409479;32;20346;-68
2022/05/14 01:03:34;;;;;;;;;;;;;;;14.45;64.54;101068.84;4408615;32;20049;-68
2022/05/14 01:06:04;;;;;;;;;;;;;;;14.43;64.66;101062.06;4407058;32;19958;-68
2022/05/14 01:08:30;;;;;;;;;;;;;;;14.40;64.54;101063.00;4408046;32;19953;-67
2022/05/14 01:10:56;;;;;;;;;;;;;;;14.35;65.04;101064.34;4411465;32;20067;-67
2022/05/14 01:13:22;;;;;;;;;;;;;;;14.29;65.27;101065.41;4408938;32;19972;-67
2022/05/14 01:15:52;;;;;;;;;;;;;;;14.20;65.69;101065.28;4408212;32;19993;-68
2022/05/14 01:18:20;;;;;;;;;;;;;;;14.18;65.95;101062.91;4408635;32;19965;-67
2022/05/14 01:20:50;;;;;;;;;;;;;;;14.16;66.12;101061.75;4407793;32;19989;-67
2022/05/14 01:23:30;;;;;;;;;;;;;;;14.15;66.01;101063.81;4409450;32;20020;-67
2022/05/14 01:26:28;;;;;;;;;;;;;;;14.15;65.95;101061.00;4410347;32;20090;-67
2022/05/14 01:28:55;;;;;;;;;;;;;;;14.13;65.79;101057.00;4409960;32;19973;-67
2022/05/14 01:31:20;;;;;;;;;;;;;;;14.07;65.70;101053.97;4408912;32;20042;-67
2022/05/14 01:33:46;;;;;;;;;;;;;;;14.05;65.76;101056.44;4408591;32;19998;-67
2022/05/14 01:36:11;;;;;;;;;;;;;;;14.19;65.43;101055.19;4408611;32;20005;-67
2022/05/14 01:38:37;;;;;;;;;;;;;;;14.01;65.87;101053.75;4407791;32;20400;-67
2022/05/14 01:41:02;;;;;;;;;;;;;;;13.96;65.96;101043.00;4411154;32;20645;-67
2022/05/14 01:43:28;;;;;;;;;;;;;;;13.91;65.85;101046.41;4411127;32;20627;-67
2022/05/14 01:45:54;;;;;;;;;;;;;;;13.81;66.22;101046.75;4408881;32;20307;-68
2022/05/14 01:48:19;;;;;;;;;;;;;;;13.77;66.25;101040.41;4408353;32;19988;-68
2022/05/14 01:50:45;;;;;;;;;;;;;;;13.68;66.52;101048.78;4398674;32;20486;-69
2022/05/14 01:53:11;;;;;;;;;;;;;;;13.68;66.57;101049.59;4407510;32;19994;-69
2022/05/14 01:55:38;;;;;;;;;;;;;;;13.68;66.35;101048.78;4408574;32;20346;-69
2022/05/14 01:58:36;;;;;;;;;;;;;;;13.64;66.44;101050.94;4410216;32;20000;-69
2022/05/14 02:00:50;;;;;;;;;;;;;;;13.46;67.39;101036.56;4408176;32;19997;-68
2022/05/14 02:03:17;;;;;;;;;;;;;;;13.48;67.62;101032.06;4408667;32;19993;-67
2022/05/14 02:05:42;;;;;;;;;;;;;;;13.55;67.30;101031.81;4407345;32;20361;-68
2022/05/14 02:08:08;;;;;;;;;;;;;;;13.59;67.36;101045.84;4408851;32;19996;-68
2022/05/14 02:10:35;;;;;;;;;;;;;;;13.58;67.59;101050.72;4407242;32;20196;-68
2022/05/14 02:13:01;;;;;;;;;;;;;;;13.62;67.52;101054.22;4407794;32;20004;-67
2022/05/14 02:15:26;;;;;;;;;;;;;;;13.63;67.45;101058.62;4408208;32;20031;-68
2022/05/14 02:17:52;;;;;;;;;;;;;;;13.67;67.25;101061.34;4410738;32;19953;-68
2022/05/14 02:20:18;;;;;;;;;;;;;;;13.67;67.17;101064.97;4409368;32;19972;-68
2022/05/14 02:22:48;;;;;;;;;;;;;;;13.67;67.26;101061.34;4408817;32;19987;-69
2022/05/14 02:25:19;;;;;;;;;;;;;;;13.67;67.42;101059.31;4414383;32;20106;-68
2022/05/14 02:27:48;;;;;;;;;;;;;;;13.68;67.42;101058.06;4409964;32;20031;-69
2022/05/14 02:30:13;;;;;;;;;;;;;;;13.68;67.14;101055.25;4414368;32;20004;-68
2022/05/14 02:32:41;;;;;;;;;;;;;;;13.70;66.84;101058.41;4408974;32;19973;-69
2022/05/14 02:35:07;;;;;;;;;;;;;;;13.68;66.60;101060.09;4410727;32;19964;-68
2022/05/14 02:37:33;;;;;;;;;;;;;;;13.62;66.49;101051.38;4412320;32;20226;-67
2022/05/14 02:39:59;;;;;;;;;;;;;;;13.59;66.50;101057.16;4412823;32;19969;-67
2022/05/14 02:42:24;;;;;;;;;;;;;;;13.51;67.16;101062.25;4409795;32;20018;-67
2022/05/14 02:44:50;;;;;;;;;;;;;;;13.47;67.40;101061.56;4411660;32;20281;-67
2022/05/14 02:47:16;;;;;;;;;;;;;;;13.46;67.46;101065.62;4410891;32;21386;-67
2022/05/14 02:49:41;;;;;;;;;;;;;;;13.46;67.64;101067.66;4410200;32;20004;-67
2022/05/14 02:52:07;;;;;;;;;;;;;;;13.45;67.65;101074.56;4409791;32;19977;-67
2022/05/14 02:54:33;;;;;;;;;;;;;;;13.44;67.92;101068.09;4410113;32;20016;-67
2022/05/14 02:56:59;;;;;;;;;;;;;;;13.42;67.67;101070.59;4410289;32;20006;-67
2022/05/14 02:59:24;;;;;;;;;;;;;;;13.39;67.76;101065.06;4410443;32;19998;-67
2022/05/14 03:01:50;;;;;;;;;;;;;;;13.41;67.56;101074.66;4409919;32;20008;-67
2022/05/14 03:04:16;;;;;;;;;;;;;;;13.35;67.55;101070.03;4408630;32;20233;-67
2022/05/14 03:06:42;;;;;;;;;;;;;;;13.33;67.58;101086.62;4408928;32;20016;-67
2022/05/14 03:09:08;;;;;;;;;;;;;;;13.31;67.60;101089.09;4410981;32;20024;-67
2022/05/14 03:11:33;;;;;;;;;;;;;;;13.21;67.78;101088.19;4409320;32;20363;-67
2022/05/14 03:13:59;;;;;;;;;;;;;;;13.20;67.81;101086.59;4409320;32;19961;-67
2022/05/14 03:16:24;;;;;;;;;;;;;;;13.16;68.13;101091.56;4409710;32;19965;-67
2022/05/14 03:18:49;;;;;;;;;;;;;;;13.18;67.90;101091.13;4410037;32;20306;-67
2022/05/14 03:21:15;;;;;;;;;;;;;;;13.00;68.73;101094.47;4407470;32;20387;-67
2022/05/14 03:23:40;;;;;;;;;;;;;;;13.09;68.38;101091.78;4395598;32;20013;-67
2022/05/14 03:26:06;;;;;;;;;;;;;;;12.92;68.50;101086.59;4413598;32;20000;-67
2022/05/14 03:28:31;;;;;;;;;;;;;;;12.90;68.19;101092.69;4411199;32;19954;-67
2022/05/14 03:30:57;;;;;;;;;;;;;;;12.86;67.98;101091.97;4410154;32;19993;-67
2022/05/14 03:33:23;;;;;;;;;;;;;;;12.99;66.92;101092.03;4408264;32;20008;-67
2022/05/14 03:35:48;;;;;;;;;;;;;;;12.69;68.34;101089.66;4410047;32;19957;-67
2022/05/14 03:38:14;;;;;;;;;;;;;;;12.64;68.41;101095.84;4410102;32;19953;-67
2022/05/14 03:40:39;;;;;;;;;;;;;;;12.77;68.18;101097.50;4408176;32;20381;-67
2022/05/14 03:43:05;;;;;;;;;;;;;;;12.72;68.27;101098.03;4408544;32;19958;-67
2022/05/14 03:45:30;;;;;;;;;;;;;;;12.72;68.68;101095.22;4410337;32;19986;-68
2022/05/14 03:47:57;;;;;;;;;;;;;;;12.78;68.51;101095.47;4408764;32;20442;-66
2022/05/14 03:50:23;;;;;;;;;;;;;;;12.82;68.31;101090.53;4412001;32;19966;-68
2022/05/14 03:52:48;;;;;;;;;;;;;;;12.63;69.35;101099.91;4407938;32;19988;-67
2022/05/14 03:55:14;;;;;;;;;;;;;;;12.77;68.74;101093.88;4411153;32;19965;-66
2022/05/14 03:57:39;;;;;;;;;;;;;;;12.77;69.34;101097.50;4409328;32;19957;-66
2022/05/14 04:00:07;;;;;;;;;;;;;;;12.85;69.62;101103.72;4409980;32;19966;-67
2022/05/14 04:02:34;;;;;;;;;;;;;;;12.90;69.78;101104.00;4408638;32;20436;-68
2022/05/14 04:04:59;;;;;;;;;;;;;;;12.97;70.13;101103.78;4409929;32;20385;-66
2022/05/14 04:07:25;;;;;;;;;;;;;;;13.00;70.13;101105.75;4411442;32;19961;-68
2022/05/14 04:09:51;;;;;;;;;;;;;;;13.13;69.83;101106.59;4409773;32;20331;-68
2022/05/14 04:12:17;;;;;;;;;;;;;;;13.15;69.21;101104.13;4409529;32;19967;-68
2022/05/14 04:14:43;;;;;;;;;;;;;;;13.16;68.95;101102.88;4408296;32;19975;-68
2022/05/14 04:17:09;;;;;;;;;;;;;;;13.10;69.19;101109.53;4408144;32;20528;-68
2022/05/14 04:19:34;;;;;;;;;;;;;;;13.13;68.39;101117.91;4410503;32;19976;-69
2022/05/14 04:22:00;;;;;;;;;;;;;;;13.13;68.33;101120.72;4407452;32;20306;-69
2022/05/14 04:24:27;;;;;;;;;;;;;;;13.14;68.20;101122.31;4408446;32;20073;-69
2022/05/14 04:26:53;;;;;;;;;;;;;;;13.15;67.86;101121.06;4407803;32;20724;-68
2022/05/14 04:29:20;;;;;;;;;;;;;;;12.96;67.70;101119.16;4409860;32;20318;-68
2022/05/14 04:31:46;;;;;;;;;;;;;;;12.93;68.01;101119.25;4406767;32;20425;-68
2022/05/14 04:34:12;;;;;;;;;;;;;;;12.84;68.38;101124.75;4409965;32;19985;-68
2022/05/14 04:36:39;;;;;;;;;;;;;;;12.89;68.22;101127.81;4408584;32;19999;-68
2022/05/14 04:39:05;;;;;;;;;;;;;;;12.95;67.94;101122.44;4410122;32;20335;-69
2022/05/14 04:41:31;;;;;;;;;;;;;;;13.01;67.73;101134.81;4409343;32;20014;-69
2022/05/14 04:43:58;;;;;;;;;;;;;;;13.07;67.78;101130.22;4411235;32;20009;-68
2022/05/14 04:46:23;;;;;;;;;;;;;;;13.00;67.90;101133.22;4407797;32;20340;-68
2022/05/14 04:48:49;;;;;;;;;;;;;;;13.03;67.39;101133.13;4407398;32;19993;-69
2022/05/14 04:51:14;;;;;;;;;;;;;;;13.05;67.07;101141.16;4409602;32;20454;-68
2022/05/14 04:53:40;;;;;;;;;;;;;;;13.04;67.41;101137.53;4407622;32;20004;-68
2022/05/14 04:56:05;;;;;;;;;;;;;;;13.05;67.36;101139.13;4407817;32;20035;-68
2022/05/14 04:58:31;;;;;;;;;;;;;;;13.16;67.02;101136.78;4407715;32;20057;-69
2022/05/14 05:00:56;;;;;;;;;;;;;;;13.15;66.68;101140.06;4408756;32;20345;-69
2022/05/14 05:03:23;;;;;;;;;;;;;;;13.21;66.37;101135.44;4411293;32;19968;-69
2022/05/14 05:05:51;;;;;;;;;;;;;;;13.17;66.50;101129.91;4407315;32;19998;-69
2022/05/14 05:08:17;;;;;;;;;;;;;;;13.18;67.06;101134.31;4408674;32;20034;-68
2022/05/14 05:10:43;;;;;;;;;;;;;;;13.27;66.71;101142.94;4409595;32;20410;-69
2022/05/14 05:13:11;;;;;;;;;;;;;;;13.40;66.21;101140.12;4410465;32;19965;-68
2022/05/14 05:15:36;;;;;;;;;;;;;;;13.50;66.15;101141.87;4411076;32;20042;-69
2022/05/14 05:18:01;;;;;;;;;;;;;;;13.59;65.84;101159.75;4406695;32;20001;-69
2022/05/14 05:20:27;;;;;;;;;;;;;;;13.69;65.66;101155.03;4408255;32;20030;-69
2022/05/14 05:22:52;;;;;;;;;;;;;;;13.82;65.40;101161.50;4407466;32;19997;-69
2022/05/14 05:25:18;;;;;;;;;;;;;;;13.84;65.07;101150.53;4410558;32;20058;-69
2022/05/14 05:27:43;;;;;;;;;;;;;;;13.96;64.74;101158.22;4407712;32;20498;-68
2022/05/14 05:30:09;;;;;;;;;;;;;;;14.05;64.45;101158.31;4408320;32;19972;-68
2022/05/14 05:32:35;;;;;;;;;;;;;;;14.07;64.38;101167.97;4407566;32;19992;-68
2022/05/14 05:35:00;;;;;;;;;;;;;;;14.11;64.42;101159.34;4395256;32;20370;-68
2022/05/14 05:37:26;;;;;;;;;;;;;;;14.19;64.19;101157.09;4406826;32;20005;-69
2022/05/14 05:39:51;;;;;;;;;;;;;;;14.22;64.12;101156.19;4409010;32;20029;-69
2022/05/14 05:42:17;;;;;;;;;;;;;;;14.30;64.42;101157.59;4408043;32;20104;-69
2022/05/14 05:44:42;;;;;;;;;;;;;;;14.37;64.42;101157.34;4408330;32;20341;-69
2022/05/14 05:47:08;;;;;;;;;;;;;;;14.58;63.44;101154.59;4407981;32;20314;-68
2022/05/14 05:49:34;;;;;;;;;;;;;;;14.72;63.57;101153.31;4407254;32;20334;-68
2022/05/14 05:51:59;;;;;;;;;;;;;;;14.96;63.01;101163.00;4407854;32;19954;-67
2022/05/14 05:57:10;;;;;;;;;;;;;;;15.20;62.57;101161.31;4408409;32;19990;-69
2022/05/14 05:59:36;;;;;;;;;;;;;;;15.30;62.10;101160.94;4412353;32;20045;-69
2022/05/14 06:02:01;;;;;;;;;;;;;;;15.48;61.81;101158.25;4412397;32;20027;-67
2022/05/14 06:04:27;;;;;;;;;;;;;;;15.65;60.91;101158.84;4411012;32;19976;-67
2022/05/14 06:06:53;;;;;;;;;;;;;;;15.70;61.08;101166.75;4413029;32;20001;-67
2022/05/14 06:09:20;;;;;;;;;;;;;;;15.99;60.33;101161.56;4410383;32;20013;-67
2022/05/14 06:11:45;;;;;;;;;;;;;;;16.10;59.89;101153.41;4412156;32;19957;-67
2022/05/14 06:14:12;;;;;;;;;;;;;;;16.34;59.54;101154.44;4410234;32;20348;-67
2022/05/14 06:16:37;;;;;;;;;;;;;;;16.45;59.13;101154.84;4409865;32;19973;-67
2022/05/14 06:19:03;;;;;;;;;;;;;;;16.75;58.15;101159.63;4411170;32;20424;-67
2022/05/14 06:21:29;;;;;;;;;;;;;;;16.99;57.70;101163.47;4410584;32;19957;-67
2022/05/14 06:23:54;;;;;;;;;;;;;;;16.95;57.25;101167.72;4409170;32;19961;-67
2022/05/14 06:26:20;;;;;;;;;;;;;;;16.95;56.78;101159.19;4409458;32;20349;-67
2022/05/14 06:28:46;;;;;;;;;;;;;;;17.29;57.12;101170.25;4413603;32;20428;-67
2022/05/14 06:31:12;;;;;;;;;;;;;;;17.50;56.17;101169.34;4412691;32;20355;-67
2022/05/14 06:33:38;;;;;;;;;;;;;;;17.53;56.31;101169.19;4410861;32;19994;-67
2022/05/14 06:36:03;;;;;;;;;;;;;;;17.74;55.17;101167.41;4410335;32;19983;-67
2022/05/14 06:38:29;;;;;;;;;;;;;;;18.00;54.88;101165.75;4409990;32;20013;-67
2022/05/14 06:40:54;;;;;;;;;;;;;;;18.06;54.91;101169.53;4414370;32;20256;-67
2022/05/14 06:43:20;;;;;;;;;;;;;;;18.33;54.11;101172.28;4411162;32;20011;-67
2022/05/14 06:45:46;;;;;;;;;;;;;;;18.32;54.10;101182.09;4409468;32;19995;-67
2022/05/14 06:48:12;;;;;;;;;;;;;;;18.37;53.52;101177.81;4412570;32;19993;-67
2022/05/14 06:50:41;;;;;;;;;;;;;;;18.50;52.45;101175.56;4412420;32;20400;-67
2022/05/14 06:53:07;;;;;;;;;;;;;;;18.39;52.90;101178.12;4410469;32;19996;-68
2022/05/14 06:55:36;;;;;;;;;;;;;;;18.56;52.73;101182.16;4410922;32;19954;-69
2022/05/14 06:58:01;;;;;;;;;;;;;;;18.43;52.91;101187.28;4411078;32;20375;-69
2022/05/14 07:00:27;;;;;;;;;;;;;;;18.44;52.54;101186.78;4413323;32;20221;-69
2022/05/14 07:06:37;;;;;;;;;;;;;;;18.66;52.67;101193.03;4409755;32;20080;-69
2022/05/14 07:08:25;;;;;;;;;;;;;;;18.76;52.70;101202.31;4410168;32;20091;-69
2022/05/14 07:10:50;;;;;;;;;;;;;;;18.52;53.45;101207.19;4412538;32;20326;-69
2022/05/14 07:13:16;;;;;;;;;;;;;;;18.48;53.65;101207.38;4409163;32;20378;-69
2022/05/14 07:15:41;;;;;;;;;;;;;;;18.60;53.43;101206.37;4409983;32;20324;-69
2022/05/14 07:18:07;;;;;;;;;;;;;;;18.59;53.55;101210.47;4408763;32;19962;-69
2022/05/14 07:20:33;;;;;;;;;;;;;;;18.52;53.81;101215.75;4407964;32;19994;-69
2022/05/14 07:22:59;;;;;;;;;;;;;;;18.81;53.54;101227.34;4407097;32;20691;-67
2022/05/14 07:25:26;;;;;;;;;;;;;;;19.04;52.97;101213.06;4411950;32;20358;-69
2022/05/14 07:27:52;;;;;;;;;;;;;;;19.24;52.55;101210.37;4411823;32;20410;-69
2022/05/14 07:30:18;;;;;;;;;;;;;;;19.42;51.98;101223.78;4408972;32;19962;-69
2022/05/14 07:32:44;;;;;;;;;;;;;;;19.50;51.64;101222.09;4408030;32;20005;-69
2022/05/14 07:35:10;;;;;;;;;;;;;;;19.73;50.21;101227.75;4410581;32;19973;-69
2022/05/14 07:37:39;;;;;;;;;;;;;;;19.62;49.83;101223.91;4409762;32;19985;-69
2022/05/14 07:40:07;;;;;;;;;;;;;;;19.53;50.53;101223.97;4409396;32;21104;-69
2022/05/14 07:42:35;;;;;;;;;;;;;;;19.54;50.42;101226.34;4410948;32;20210;-69
2022/05/14 07:45:03;;;;;;;;;;;;;;;19.71;50.05;101232.41;4409141;32;19957;-69
2022/05/14 07:47:29;;;;;;;;;;;;;;;19.88;50.20;101238.44;4409431;32;20247;-69
2022/05/14 07:49:56;;;;;;;;;;;;;;;19.74;50.22;101235.06;4410033;32;19967;-69
2022/05/14 07:52:22;;;;;;;;;;;;;;;20.01;50.18;101238.94;4408639;32;19972;-69
2022/05/14 07:54:48;;;;;;;;;;;;;;;20.07;49.20;101240.63;4409205;32;19965;-69
2022/05/14 07:57:16;;;;;;;;;;;;;;;20.09;49.23;101242.97;4409114;32;20048;-69
2022/05/14 07:59:41;;;;;;;;;;;;;;;20.22;49.21;101237.78;4396454;32;20360;-69
2022/05/14 08:02:18;;;;;;;;;;;;;;;20.26;49.09;101235.50;4410018;32;19971;-69
2022/05/14 08:04:44;;;;;;;;;;;;;;;20.35;48.97;101229.69;4409664;32;20334;-69
2022/05/14 08:07:09;;;;;;;;;;;;;;;20.28;49.14;101224.38;4406979;32;19997;-69
2022/05/14 08:09:35;;;;;;;;;;;;;;;20.17;49.17;101227.81;4409651;32;19968;-69
2022/05/14 08:12:00;;;;;;;;;;;;;;;20.25;49.39;101226.13;4412088;32;19980;-69
2022/05/14 08:14:26;;;;;;;;;;;;;;;20.48;48.91;101233.81;4408210;32;19982;-69
2022/05/14 08:16:52;;;;;;;;;;;;;;;20.64;48.39;101236.16;4407114;32;20320;-69
2022/05/14 08:19:18;;;;;;;;;;;;;;;20.89;47.88;101226.91;4410776;32;20264;-67
2022/05/14 08:24:34;;;;;;;;;;;;;;;21.45;46.04;101234.19;4408882;32;20003;-67
2022/05/14 08:27:02;;;;;;;;;;;;;;;21.86;44.78;101229.19;4407557;32;19958;-67
2022/05/14 08:29:27;;;;;;;;;;;;;;;21.87;44.01;101227.94;4409556;32;20009;-67
2022/05/14 08:31:53;;;;;;;;;;;;;;;22.01;43.48;101227.03;4408561;32;19961;-67
2022/05/14 08:34:19;;;;;;;;;;;;;;;22.38;42.93;101227.88;4410522;32;20028;-67
2022/05/14 08:36:45;;;;;;;;;;;;;;;22.23;42.32;101230.88;4409296;32;20009;-68
2022/05/14 08:39:11;;;;;;;;;;;;;;;22.19;41.78;101227.47;4409402;32;20042;-67
2022/05/14 08:41:39;;;;;;;;;;;;;;;22.67;40.93;101231.28;4409606;32;19981;-68
2022/05/14 08:44:07;;;;;;;;;;;;;;;22.93;40.31;101223.37;4409798;32;20003;-68
2022/05/14 08:46:33;;;;;;;;;;;;;;;22.99;40.11;101232.81;4410065;32;20761;-68
2022/05/14 08:49:04;;;;;;;;;;;;;;;23.04;39.75;101234.13;4408698;32;19988;-68
2022/05/14 08:51:33;;;;;;;;;;;;;;;23.32;38.95;101233.00;4407401;32;20391;-68
2022/05/14 08:53:59;;;;;;;;;;;;;;;24.06;37.75;101229.84;4407256;32;19989;-68
2022/05/14 08:56:45;;;;;;;;;;;;;;;24.13;36.79;101232.22;4407251;32;19971;-67
2022/05/14 09:01:46;;;;;;;;;;;;;;;25.57;35.11;101229.91;3949917;32;15776603;-68
2022/05/14 09:04:13;;;;;;;;;;;;;;;25.57;35.11;101229.91;4433983;32;19961;-68
2022/05/14 09:06:40;;;;;;;;;;;;;;;25.23;35.04;101237.88;4432405;32;20005;-68
2022/05/14 09:09:07;;;;;;;;;;;;;;;25.22;35.05;101244.97;4433104;32;20011;-68
2022/05/14 09:11:45;;;;;;;;;;;;;;;24.92;35.75;101244.78;4433679;32;20361;-68
2022/05/14 09:14:28;;;;;;;;;;;;;;;25.39;34.93;101239.97;4433617;32;20394;-68
2022/05/14 09:17:14;;;;;;;;;;;;;;;25.84;34.47;101234.75;4432172;32;19957;-68
2022/05/14 09:19:43;;;;;;;;;;;;;;;26.15;33.33;101246.66;4431103;32;20027;-68
2022/05/14 09:22:28;;;;;;;;;;;;;;;25.74;34.00;101237.16;4430241;32;20310;-68
2022/05/14 09:25:02;;;;;;;;;;;;;;;25.65;34.19;101239.59;4435277;32;20290;-69
2022/05/14 09:27:33;;;;;;;;;;;;;;;25.66;34.23;101236.16;4432379;32;19957;-68
2022/05/14 09:30:02;;;;;;;;;;;;;;;25.96;33.74;101231.28;4435115;32;20303;-68
2022/05/14 09:32:30;;;;;;;;;;;;;;;25.88;33.97;101236.03;4430243;32;20351;-68
2022/05/14 09:35:05;;;;;;;;;;;;;;;26.43;33.05;101234.88;4432923;32;20257;-68
2022/05/14 09:37:31;;;;;;;;;;;;;;;26.88;32.62;101239.75;4429192;32;19968;-68
2022/05/14 09:39:57;;;;;;;;;;;;;;;27.49;31.51;101232.53;4433054;32;19958;-68
2022/05/14 09:42:25;;;;;;;;;;;;;;;26.96;31.29;101234.94;4432651;32;19998;-68
2022/05/14 09:44:52;;;;;;;;;;;;;;;27.51;30.63;101238.53;4434270;32;20240;-68
2022/05/14 09:47:27;;;;;;;;;;;;;;;27.91;29.95;101229.59;4432855;32;19961;-68
2022/05/14 09:49:58;;;;;;;;;;;;;;;27.00;30.67;101238.31;4432967;32;19992;-68
2022/05/14 09:52:25;;;;;;;;;;;;;;;27.31;30.47;101239.84;4429429;32;20008;-68
2022/05/14 09:54:51;;;;;;;;;;;;;;;27.03;30.54;101240.09;4433528;32;20596;-68
2022/05/14 10:00:05;;;;;;;;;;;;;;;27.60;30.35;101241.81;3958368;32;15725567;-69
2022/05/14 10:02:51;;;;;;;;;;;;;;;27.60;30.35;101241.81;4437420;32;20021;-69
2022/05/14 10:05:36;;;;;;;;;;;;;;;27.36;30.57;101235.31;4441934;32;20397;-69
2022/05/14 10:13:42;;;;;;;;;;;;;;;27.18;31.40;101233.91;3950012;32;15722618;-69
2022/05/14 10:16:19;;;;;;;;;;;;;;;27.15;31.41;101234.97;4433765;32;19968;-69
2022/05/14 10:21:30;;;;;;;;;;;;;;;27.06;31.97;101241.16;3950166;32;15723566;-69
2022/05/14 10:27:21;;;;;;;;;;;;;;;26.93;32.04;101232.34;4428441;32;20331;-69
2022/05/14 10:32:25;;;;;;;;;;;;;;;27.30;31.07;101238.25;3968221;31;15739507;-68
2022/05/14 10:34:55;;;;;;;;;;;;;;;27.30;31.07;101238.25;4443742;32;20000;-68
2022/05/14 10:45:14;;;;;;;;;;;;;;;27.96;29.72;101239.53;3950097;32;15721243;-69
2022/05/14 10:47:43;;;;;;;;;;;;;;;28.23;29.31;101236.22;4428863;32;20064;-69
2022/05/14 10:50:12;;;;;;;;;;;;;;;28.55;28.58;101239.91;4425509;32;20277;-69
2022/05/14 10:52:39;;;;;;;;;;;;;;;28.19;27.45;101241.53;4423146;32;20011;-69
2022/05/14 10:55:24;;;;;;;;;;;;;;;28.38;27.54;101238.59;4425231;32;20570;-69
2022/05/14 10:57:54;;;;;;;;;;;;;;;28.70;26.17;101234.41;4426238;32;20190;-69
2022/05/14 11:00:31;;;;;;;;;;;;;;;29.16;25.81;101226.44;4427185;32;20381;-69
2022/05/14 11:02:59;;;;;;;;;;;;;;;29.49;25.74;101241.06;4423925;32;20008;-69
2022/05/14 11:05:26;;;;;;;;;;;;;;;30.16;25.18;101234.56;4426286;32;20073;-69
2022/05/14 11:07:52;;;;;;;;;;;;;;;29.83;25.37;101238.22;4425043;32;19986;-69
2022/05/14 11:13:07;;;;;;;;;;;;;;;30.10;24.20;101225.97;3949514;32;15723553;-69
2022/05/14 11:15:33;;;;;;;;;;;;;;;30.10;24.20;101225.97;4432532;32;20007;-69
2022/05/14 11:18:19;;;;;;;;;;;;;;;29.46;24.97;101226.87;4431523;32;19996;-69
2022/05/14 11:20:53;;;;;;;;;;;;;;;29.46;24.93;101223.97;4433750;32;19976;-69
2022/05/14 11:23:19;;;;;;;;;;;;;;;29.89;24.55;101221.47;4430838;32;19996;-69
2022/05/14 11:25:44;;;;;;;;;;;;;;;30.33;24.22;101223.31;4432418;32;20001;-69
2022/05/14 11:30:49;;;;;;;;;;;;;;;32.71;22.11;101217.09;3962897;31;15717885;-68
2022/05/14 11:36:04;;;;;;;;;;;;;;;32.54;21.75;101221.34;3952687;32;15723145;-69
2022/05/14 11:38:34;;;;;;;;;;;;;;;32.54;21.75;101221.34;4429018;32;20008;-69
2022/05/14 11:41:02;;;;;;;;;;;;;;;31.35;22.94;101218.78;4427686;32;20363;-69
2022/05/14 11:48:45;;;;;;;;;;;;;;;32.80;21.77;101213.59;3949862;32;15723574;-69
2022/05/14 11:54:20;;;;;;;;;;;;;;;33.69;21.04;101209.75;3936410;32;15723549;-69
2022/05/14 11:56:53;;;;;;;;;;;;;;;33.69;21.04;101209.75;4414071;32;19950;-69
2022/05/14 11:59:38;;;;;;;;;;;;;;;33.91;20.75;101211.81;4411526;32;19983;-70
2022/05/14 12:02:06;;;;;;;;;;;;;;;34.82;20.36;101208.25;4409470;32;20014;-69
2022/05/14 12:04:34;;;;;;;;;;;;;;;35.38;19.55;101205.22;4412705;32;20017;-69
2022/05/14 12:14:50;;;;;;;;;;;;;;;35.01;20.36;101202.66;3950095;32;15725517;-69
2022/05/14 12:17:19;;;;;;;;;;;;;;;35.01;20.36;101202.66;4425633;32;19958;-69
2022/05/14 12:19:51;;;;;;;;;;;;;;;33.91;21.08;101205.19;4427722;32;19985;-69
2022/05/14 12:22:19;;;;;;;;;;;;;;;34.14;20.79;101205.81;4424409;32;19970;-69
2022/05/14 12:25:01;;;;;;;;;;;;;;;34.48;20.26;101202.31;4427204;32;21205;-69
2022/05/14 12:27:29;;;;;;;;;;;;;;;34.73;20.10;101195.09;4425456;32;20961;-69
2022/05/14 12:29:57;;;;;;;;;;;;;;;35.18;19.79;101188.03;4427134;32;20013;-70
2022/05/14 12:37:54;;;;;;;;;;;;;;;36.68;17.21;101191.06;3964794;32;15718246;-70
2022/05/14 12:40:24;;;;;;;;;;;;;;;36.68;17.21;101191.06;4449381;32;20060;-69
2022/05/14 12:42:50;;;;;;;;;;;;;;;35.63;18.20;101182.44;4450743;32;20101;-69
2022/05/14 12:45:15;;;;;;;;;;;;;;;34.81;18.61;101174.56;4451534;32;20445;-69
2022/05/14 12:47:42;;;;;;;;;;;;;;;33.72;19.25;101178.59;4449358;32;19993;-69
2022/05/14 12:52:52;;;;;;;;;;;;;;;32.00;20.37;101178.12;3949312;32;15725340;-69
2022/05/14 12:55:19;;;;;;;;;;;;;;;32.67;20.04;101177.44;4426150;32;20335;-69
2022/05/14 12:57:46;;;;;;;;;;;;;;;33.28;19.62;101177.38;4428278;32;19996;-69
2022/05/14 13:00:15;;;;;;;;;;;;;;;33.95;19.24;101180.03;4426158;32;19997;-69
2022/05/14 13:02:44;;;;;;;;;;;;;;;34.11;19.20;101169.81;4424074;32;19986;-69
2022/05/14 13:07:47;;;;;;;;;;;;;;;36.11;17.12;101177.69;3951070;32;15725603;-70
2022/05/14 13:10:16;;;;;;;;;;;;;;;36.11;17.12;101177.69;4432594;32;20028;-70
2022/05/14 13:12:46;;;;;;;;;;;;;;;35.64;17.33;101177.34;4431564;32;19972;-70
2022/05/14 13:15:12;;;;;;;;;;;;;;;35.39;17.79;101168.69;4431451;32;20002;-69
2022/05/14 13:17:39;;;;;;;;;;;;;;;35.59;17.93;101166.69;4431336;32;19996;-69
2022/05/14 13:20:07;;;;;;;;;;;;;;;35.70;18.04;101161.06;4431992;32;19988;-70
2022/05/14 13:22:41;;;;;;;;;;;;;;;35.70;17.07;101157.34;4431890;32;19973;-70
2022/05/14 13:25:26;;;;;;;;;;;;;;;36.35;17.10;101157.62;4428058;32;20015;-70
2022/05/14 13:27:52;;;;;;;;;;;;;;;37.09;16.51;101172.37;4431467;32;19961;-70
2022/05/14 13:30:19;;;;;;;;;;;;;;;37.76;15.91;101164.38;4432357;32;20534;-70
2022/05/14 13:32:44;;;;;;;;;;;;;;;38.26;15.60;101155.56;4431221;32;19996;-70
2022/05/14 13:38:07;;;;;;;;;;;;;;;37.94;14.82;101151.78;4433430;32;19983;-70
2022/05/14 13:40:38;;;;;;;;;;;;;;;38.04;14.74;101153.94;4434153;32;19966;-70
2022/05/14 13:43:10;;;;;;;;;;;;;;;38.04;14.87;101159.81;4432305;32;19976;-70
2022/05/14 13:45:38;;;;;;;;;;;;;;;38.62;14.42;101153.09;4433709;32;20013;-68
2022/05/14 13:48:06;;;;;;;;;;;;;;;37.95;14.36;101150.38;4429266;32;20002;-70
2022/05/14 13:50:34;;;;;;;;;;;;;;;37.45;14.81;101145.81;4432516;32;20617;-70
2022/05/14 13:53:00;;;;;;;;;;;;;;;38.01;14.43;101147.12;4432605;32;20351;-70
2022/05/14 13:55:30;;;;;;;;;;;;;;;37.99;14.34;101138.16;4434551;32;19993;-68